Time;durP1;ratioP1;P1;durP2;ratioP2;P2;SDS_P1;SDS_P2;PMS_P1;PMS_P2;Temp;Humidity;BMP_temperature;BMP_pressure;BME280_temperature;BME280_humidity;BME280_pressure;Samples;Min_cycle;Max_cycle;Signal;HPM_P1;HPM_P2
2021/12/10 00:00:27;;;;;;;26.55;17.15;;;;;;;-144.19;89.02;76557.56;5093491;28;20072;-92
2021/12/10 00:02:59;;;;;;;27.05;17.08;;;;;;;-144.19;88.89;76547.72;5076386;28;20045;-91
2021/12/10 00:05:30;;;;;;;26.70;16.88;;;;;;;-144.19;89.10;76547.72;5075951;28;20051;-91
2021/12/10 00:08:01;;;;;;;27.77;17.17;;;;;;;-144.19;88.96;76543.78;5075474;28;20056;-90
2021/12/10 00:10:35;;;;;;;28.00;17.50;;;;;;;-144.19;89.19;76547.72;5076563;28;20060;-91
2021/12/10 00:13:03;;;;;;;26.40;16.27;;;;;;;-144.19;89.02;76543.78;5075909;28;20078;-90
2021/12/10 00:15:31;;;;;;;22.90;16.10;;;;;;;-144.19;89.18;76545.75;5076266;28;20425;-91
2021/12/10 00:18:03;;;;;;;22.25;15.32;;;;;;;-144.19;89.00;76537.88;5075760;28;20072;-91
2021/12/10 00:20:32;;;;;;;23.55;15.07;;;;;;;-144.19;88.25;76531.97;5075764;28;20127;-91
2021/12/10 00:23:07;;;;;;;23.80;15.82;;;;;;;-144.19;88.62;76531.97;5075801;28;20040;-92
2021/12/10 00:25:39;;;;;;;25.38;15.48;;;;;;;-144.19;88.79;76522.13;5075545;28;20053;-93
2021/12/10 00:28:22;;;;;;;26.13;15.38;;;;;;;-144.19;88.82;76535.91;5075860;28;20049;-92
2021/12/10 00:31:20;;;;;;;21.40;13.95;;;;;;;-144.19;88.70;76520.16;5077238;28;20562;-91
2021/12/10 00:33:53;;;;;;;23.27;14.75;;;;;;;-144.19;87.93;76522.13;5077471;28;20044;-92
2021/12/10 00:36:23;;;;;;;23.25;14.85;;;;;;;-144.19;88.12;76520.16;5077602;28;20057;-91
2021/12/10 00:38:53;;;;;;;23.20;14.52;;;;;;;-144.19;88.18;76524.09;5076813;28;20056;-92
2021/12/10 00:41:23;;;;;;;26.95;16.50;;;;;;;-144.19;87.62;76504.41;5092550;28;20053;-93
2021/12/10 00:43:51;;;;;;;23.60;15.20;;;;;;;-144.19;87.62;76510.31;5076321;28;20052;-93
2021/12/10 00:46:17;;;;;;;21.17;13.85;;;;;;;-144.19;87.43;76504.41;5092831;28;20139;-92
2021/12/10 00:48:45;;;;;;;24.10;13.75;;;;;;;-144.19;87.49;76506.38;5075659;28;20052;-92
2021/12/10 00:51:12;;;;;;;22.80;14.32;;;;;;;-144.19;87.40;76492.63;5076520;28;20056;-90
2021/12/10 00:53:42;;;;;;;21.65;14.68;;;;;;;-144.19;86.80;76494.59;5075639;28;20557;-92
2021/12/10 00:56:11;;;;;;;24.55;15.32;;;;;;;-144.19;86.56;76484.75;5075299;28;20056;-92
2021/12/10 00:58:40;;;;;;;22.17;14.15;;;;;;;-144.19;86.71;76496.53;5075792;28;20121;-91
2021/12/10 01:01:12;;;;;;;19.05;13.32;;;;;;;-144.19;86.26;76488.69;5075820;28;20048;-92
2021/12/10 01:03:44;;;;;;;22.08;14.45;;;;;;;-144.19;86.39;76488.69;5076138;28;20044;-91
2021/12/10 01:06:14;;;;;;;24.70;14.65;;;;;;;-144.19;86.63;76472.94;5075430;28;20056;-91
2021/12/10 01:08:48;;;;;;;25.88;15.02;;;;;;;-144.19;86.45;76480.81;5088832;22;20616;-85
2021/12/10 01:11:29;;;;;;;21.75;14.00;;;;;;;-144.19;86.81;76488.69;4993472;28;20066;-86
2021/12/10 01:14:09;;;;;;;21.17;12.57;;;;;;;-144.19;87.13;76480.81;4995597;28;20056;-86
2021/12/10 01:27:33;;;;;;;19.10;12.32;;;;;;;-144.19;86.89;76476.88;4994929;28;20065;-86
2021/12/10 01:30:09;;;;;;;19.25;12.73;;;;;;;-144.19;87.13;76474.91;4978827;28;20073;-87
2021/12/10 01:32:38;;;;;;;19.38;12.50;;;;;;;-144.19;87.42;76476.88;4994461;28;20081;-85
2021/12/10 01:35:10;;;;;;;18.40;12.38;;;;;;;-144.19;87.30;76469.00;4995802;28;20065;-86
2021/12/10 01:37:37;;;;;;;19.38;12.20;;;;;;;-144.19;86.87;76467.03;4977208;28;20051;-86
2021/12/10 01:40:07;;;;;;;17.83;11.88;;;;;;;-144.19;86.64;76465.06;4978190;28;20448;-86
2021/12/10 01:42:45;;;;;;;16.77;10.80;;;;;;;-144.19;86.95;76472.94;4977685;28;20050;-85
2021/12/10 01:45:21;;;;;;;19.20;10.77;;;;;;;-144.19;87.16;76472.94;4977625;28;20397;-86
2021/12/10 01:47:57;;;;;;;17.10;10.65;;;;;;;-144.19;86.76;76472.94;4977196;28;20058;-86
2021/12/10 01:50:24;;;;;;;14.75;10.50;;;;;;;-144.19;86.64;76469.00;4978272;28;20146;-86
2021/12/10 01:52:53;;;;;;;;;;;;;;;-144.19;86.27;76461.13;4977823;28;20050;-86
2021/12/10 01:55:21;;;;;;;17.77;11.48;;;;;;;-144.19;86.17;76453.25;4977123;28;19929;-86
2021/12/10 01:57:49;;;;;;;16.13;10.90;;;;;;;-144.19;86.47;76457.19;4994210;28;20057;-86
2021/12/10 02:00:18;;;;;;;17.73;10.50;;;;;;;-144.19;86.47;76455.22;4977344;28;20058;-86
2021/12/10 02:02:45;;;;;;;17.00;10.57;;;;;;;-144.19;86.26;76457.19;4994308;28;20073;-86
2021/12/10 02:05:13;;;;;;;20.17;11.45;;;;;;;-144.19;86.89;76457.19;4977176;28;20142;-86
2021/12/10 02:07:40;;;;;;;14.50;10.45;;;;;;;-144.19;86.30;76461.13;4993878;28;20082;-85
2021/12/10 02:10:09;;;;;;;18.77;11.77;;;;;;;-144.19;86.66;76465.06;4994150;28;20058;-87
2021/12/10 02:12:36;;;;;;;14.30;10.15;;;;;;;-144.19;86.55;76457.19;4994616;28;20343;-86
2021/12/10 02:15:04;;;;;;;17.45;11.15;;;;;;;-144.19;86.44;76465.06;4994382;28;20054;-86
2021/12/10 02:17:36;;;;;;;19.80;10.98;;;;;;;-144.19;86.21;76457.19;4976150;28;20058;-86
2021/12/10 02:20:17;;;;;;;17.02;11.40;;;;;;;-144.19;85.59;76445.38;4976558;28;20432;-86
2021/12/10 02:22:44;;;;;;;17.38;10.77;;;;;;;-144.19;86.02;76461.13;4976626;28;20523;-86
2021/12/10 02:25:13;;;;;;;16.25;10.63;;;;;;;-144.19;86.02;76453.25;4993733;28;20505;-86
2021/12/10 02:27:39;;;;;;;15.75;10.95;;;;;;;-144.19;85.46;76437.50;4976537;28;20064;-85
2021/12/10 02:30:11;;;;;;;13.43;9.73;;;;;;;-144.19;85.43;76443.41;4995425;28;20515;-86
2021/12/10 02:32:37;;;;;;;17.30;11.00;;;;;;;-144.19;85.44;76443.41;4990258;28;20560;-85
2021/12/10 02:35:06;;;;;;;17.08;10.63;;;;;;;-144.19;86.16;76433.56;4993589;28;20767;-86
2021/12/10 02:37:33;;;;;;;15.80;9.85;;;;;;;-144.19;85.63;76437.50;4992890;28;20058;-85
2021/12/10 02:40:00;;;;;;;16.63;10.35;;;;;;;-144.19;85.65;76431.59;4976874;28;20053;-85
2021/12/10 02:42:26;;;;;;;16.23;10.30;;;;;;;-144.19;85.82;76421.75;4993985;28;20066;-86
2021/12/10 02:44:53;;;;;;;15.15;10.55;;;;;;;-144.19;85.10;76417.81;4993730;28;20496;-85
2021/12/10 02:47:20;;;;;;;15.17;9.73;;;;;;;-144.19;85.61;76421.75;4993216;28;20058;-85
2021/12/10 02:49:46;;;;;;;15.32;10.07;;;;;;;-144.19;85.78;76417.81;4976496;28;20553;-87
2021/12/10 02:52:14;;;;;;;17.73;9.57;;;;;;;-144.19;85.23;76415.84;4976338;28;20052;-86
2021/12/10 02:54:43;;;;;;;17.58;10.35;;;;;;;-144.19;85.32;76421.75;5009597;28;20425;-87
2021/12/10 02:57:14;;;;;;;16.88;9.80;;;;;;;-144.19;85.24;76429.63;4976450;28;20054;-85
2021/12/10 02:59:40;;;;;;;16.83;10.50;;;;;;;-144.19;85.68;76435.53;4976557;28;20065;-86
2021/12/10 03:02:12;;;;;;;13.45;9.07;;;;;;;-144.19;85.53;76435.53;4993694;28;20054;-87
2021/12/10 03:04:40;;;;;;;15.30;9.65;;;;;;;-144.19;85.33;76429.63;4976666;28;20270;-87
2021/12/10 03:07:12;;;;;;;17.25;9.85;;;;;;;-144.19;84.90;76425.69;4992819;28;20061;-86
2021/12/10 03:09:41;;;;;;;15.20;9.25;;;;;;;-144.19;84.93;76419.78;4993351;28;20054;-86
2021/12/10 03:12:09;;;;;;;12.23;8.65;;;;;;;-144.19;84.38;76419.78;4975768;28;20054;-85
2021/12/10 03:14:37;;;;;;;12.65;8.48;;;;;;;-144.19;83.78;76417.81;4993060;28;20050;-87
2021/12/10 03:17:09;;;;;;;13.75;9.90;;;;;;;-144.19;84.00;76417.81;4992659;28;20046;-86
2021/12/10 03:19:36;;;;;;;12.25;8.63;;;;;;;-144.19;84.46;76419.78;4993108;28;20050;-86
2021/12/10 03:22:04;;;;;;;12.85;9.63;;;;;;;-144.19;84.48;76435.53;4975756;28;20054;-85
2021/12/10 03:24:30;;;;;;;12.07;8.80;;;;;;;-144.19;85.32;76435.53;4992063;28;20047;-85
2021/12/10 03:26:58;;;;;;;11.80;8.27;;;;;;;-144.19;85.28;76419.78;4992488;28;20050;-86
2021/12/10 03:29:27;;;;;;;13.52;8.13;;;;;;;-144.19;84.55;76427.66;4975449;28;20054;-85
2021/12/10 03:31:55;;;;;;;10.45;7.78;;;;;;;-144.19;84.57;76433.56;4976139;28;20069;-85
2021/12/10 03:34:22;;;;;;;11.05;7.80;;;;;;;-144.19;84.35;76407.97;4992698;28;20043;-85
2021/12/10 03:36:51;;;;;;;11.65;7.35;;;;;;;-144.19;83.98;76421.75;4975117;28;20525;-86
2021/12/10 03:39:20;;;;;;;11.93;7.88;;;;;;;-144.19;84.13;76419.78;4975197;28;20050;-88
2021/12/10 03:41:48;;;;;;;12.75;7.88;;;;;;;-144.19;83.89;76419.78;4992790;28;20050;-85
2021/12/10 03:44:15;;;;;;;11.20;7.68;;;;;;;-144.19;83.95;76419.78;4975380;28;20046;-85
2021/12/10 03:46:42;;;;;;;11.32;8.05;;;;;;;-144.19;84.29;76421.75;4992833;28;20501;-85
2021/12/10 03:49:09;;;;;;;14.98;7.35;;;;;;;-144.19;84.65;76421.75;4995962;28;20097;-85
2021/12/10 03:51:36;;;;;;;9.25;6.43;;;;;;;-144.19;83.90;76415.84;4978436;28;20066;-88
2021/12/10 03:54:05;;;;;;;12.15;8.23;;;;;;;-144.19;84.01;76413.88;4993512;28;20057;-88
2021/12/10 03:56:33;;;;;;;10.93;6.72;;;;;;;-144.19;84.16;76415.84;4978609;28;20061;-87
2021/12/10 03:59:03;;;;;;;10.68;7.00;;;;;;;-144.19;83.98;76402.06;4978665;28;20057;-88
2021/12/10 04:01:34;;;;;;;12.50;7.78;;;;;;;-144.19;83.11;76394.19;4978546;28;20054;-88
2021/12/10 04:04:04;;;;;;;12.55;7.55;;;;;;;-144.19;83.34;76388.28;4978502;28;20528;-87
2021/12/10 04:06:30;;;;;;;10.00;6.97;;;;;;;-144.19;82.70;76398.13;4983943;28;20038;-86
2021/12/10 04:08:57;;;;;;;8.93;6.20;;;;;;;-144.19;82.82;76390.25;4983528;28;20046;-87
2021/12/10 04:11:24;;;;;;;9.48;6.43;;;;;;;-144.19;82.65;76390.25;4981399;28;20281;-88
2021/12/10 04:13:53;;;;;;;8.85;6.13;;;;;;;-144.19;82.88;76388.28;4998367;28;20524;-87
2021/12/10 04:16:22;;;;;;;10.40;6.03;;;;;;;-144.19;82.97;76398.13;4979760;28;20046;-87
2021/12/10 04:18:50;;;;;;;13.25;6.53;;;;;;;-144.19;82.43;76386.31;4979425;28;20064;-88
2021/12/10 04:21:18;;;;;;;10.88;7.03;;;;;;;-144.19;82.06;76386.31;4979276;28;20057;-89
2021/12/10 04:23:46;;;;;;;9.55;6.60;;;;;;;-144.19;82.55;76396.16;4997474;28;20053;-87
2021/12/10 04:26:14;;;;;;;;;;;;;;;-144.19;82.81;76402.06;4997403;28;20060;-87
2021/12/10 04:28:40;;;;;;;11.70;6.75;;;;;;;-144.19;82.64;76396.16;4997337;28;19922;-87
2021/12/10 04:31:08;;;;;;;9.57;6.25;;;;;;;-144.19;82.46;76402.06;4996401;28;20061;-87
2021/12/10 04:33:35;;;;;;;11.88;7.03;;;;;;;-144.19;82.51;76394.19;4996525;28;20492;-88
2021/12/10 04:36:04;;;;;;;9.90;6.70;;;;;;;-144.19;82.39;76396.16;4979004;28;20061;-87
2021/12/10 04:38:33;;;;;;;10.35;6.90;;;;;;;-144.19;82.33;76390.25;4981423;28;20052;-87
2021/12/10 04:41:04;;;;;;;13.48;7.13;;;;;;;-144.19;82.46;76374.50;4996343;28;20427;-88
2021/12/10 04:43:34;;;;;;;10.60;7.32;;;;;;;-144.19;82.28;76386.31;4978801;28;20050;-87
2021/12/10 04:46:01;;;;;;;8.90;6.28;;;;;;;-144.19;82.38;76390.25;4977631;28;20057;-87
2021/12/10 04:48:30;;;;;;;8.80;5.70;;;;;;;-144.19;82.83;76384.34;4978793;28;20069;-87
2021/12/10 04:50:58;;;;;;;8.45;6.45;;;;;;;-144.19;82.68;76376.47;4996578;28;20054;-87
2021/12/10 04:53:25;;;;;;;9.60;6.18;;;;;;;-144.19;82.45;76362.69;4978774;28;20050;-87
2021/12/10 04:55:51;;;;;;;10.67;6.80;;;;;;;-144.19;82.57;76364.66;4979199;28;20050;-88
2021/12/10 04:58:18;;;;;;;8.87;6.20;;;;;;;-144.19;82.51;76366.63;4977735;28;20641;-88
2021/12/10 05:00:48;;;;;;;9.10;6.53;;;;;;;-144.19;82.59;76366.63;4979600;28;20402;-87
2021/12/10 05:03:15;;;;;;;9.25;6.25;;;;;;;-144.19;82.59;76366.63;4995524;28;20050;-87
2021/12/10 05:05:42;;;;;;;10.18;6.32;;;;;;;-144.19;82.43;76354.81;4995623;28;20053;-87
2021/12/10 05:08:10;;;;;;;11.13;6.60;;;;;;;-144.19;82.50;76350.88;4977624;28;20058;-88
2021/12/10 05:10:37;;;;;;;10.20;7.10;;;;;;;-144.19;82.59;76354.81;4977694;28;20062;-87
2021/12/10 05:13:03;;;;;;;10.25;6.80;;;;;;;-144.19;83.22;76354.81;4995079;28;20057;-88
2021/12/10 05:15:33;;;;;;;9.50;7.22;;;;;;;-144.19;83.83;76352.84;4996962;28;20058;-85
2021/12/10 05:18:00;;;;;;;15.23;9.55;;;;;;;-144.19;83.84;76356.78;5009765;28;20061;-86
2021/12/10 05:20:35;;;;;;;10.60;7.90;;;;;;;-144.19;84.00;76348.91;4996073;28;20054;-85
2021/12/10 05:23:01;;;;;;;15.77;10.73;;;;;;;-144.19;83.79;76343.03;4996237;28;20050;-85
2021/12/10 05:25:29;;;;;;;18.35;11.68;;;;;;;-144.19;83.91;76337.13;4994860;28;20425;-86
2021/12/10 05:27:57;;;;;;;15.35;9.15;;;;;;;-144.19;83.87;76337.13;4977647;28;20057;-86
2021/12/10 05:30:28;;;;;;;10.90;7.75;;;;;;;-144.19;83.87;76339.09;4995389;28;20054;-87
2021/12/10 05:32:56;;;;;;;11.82;6.85;;;;;;;-144.19;83.92;76335.16;4986402;28;20085;-86
2021/12/10 05:35:23;;;;;;;13.32;8.27;;;;;;;-144.19;83.95;76335.16;4976721;28;20050;-86
2021/12/10 05:37:49;;;;;;;10.35;7.80;;;;;;;-144.19;83.77;76335.16;4977341;28;20054;-86
2021/12/10 05:40:18;;;;;;;12.07;7.60;;;;;;;-144.19;84.26;76335.16;4995254;28;20078;-86
2021/12/10 05:42:45;;;;;;;11.77;7.23;;;;;;;-144.19;84.08;76335.16;4976648;28;20046;-84
2021/12/10 05:45:15;;;;;;;11.25;7.45;;;;;;;-144.19;84.40;76335.16;4990849;28;20715;-85
2021/12/10 05:47:42;;;;;;;9.20;7.00;;;;;;;-144.19;84.32;76341.06;4977321;28;20460;-84
2021/12/10 05:50:11;;;;;;;11.98;7.22;;;;;;;-144.19;84.45;76339.09;4977674;28;20527;-85
2021/12/10 05:52:37;;;;;;;11.20;7.97;;;;;;;-144.19;84.52;76348.91;4978070;28;20054;-84
2021/12/10 05:55:04;;;;;;;9.00;6.35;;;;;;;-144.19;84.64;76356.78;4977421;28;20050;-84
2021/12/10 05:57:31;;;;;;;11.05;7.32;;;;;;;-144.19;84.62;76366.63;4994760;28;20058;-85
2021/12/10 05:59:57;;;;;;;12.10;7.28;;;;;;;-144.19;84.68;76376.47;4977959;28;20535;-85
2021/12/10 06:02:24;;;;;;;8.53;6.53;;;;;;;-144.19;85.23;76366.63;4978038;28;20052;-83
2021/12/10 06:04:51;;;;;;;9.40;6.85;;;;;;;-144.19;84.92;76372.53;4978547;28;20306;-84
2021/12/10 06:07:18;;;;;;;11.35;7.20;;;;;;;-144.19;85.06;76384.34;4993532;28;20050;-86
2021/12/10 06:09:44;;;;;;;13.30;7.10;;;;;;;-144.19;85.37;76382.38;4994603;28;20448;-83
2021/12/10 06:12:12;;;;;;;11.75;6.70;;;;;;;-144.19;85.36;76390.25;4977548;28;20133;-84
2021/12/10 06:14:40;;;;;;;;;;;;;;;-144.19;85.31;76398.13;4978435;28;20050;-84
2021/12/10 06:17:06;;;;;;;10.05;7.20;;;;;;;-144.19;85.49;76398.13;4995089;28;20452;-84
2021/12/10 06:19:32;;;;;;;10.37;6.07;;;;;;;-144.19;85.47;76404.03;4977110;28;20665;-83
2021/12/10 06:21:59;;;;;;;12.77;6.50;;;;;;;-144.19;85.81;76406.00;4994506;28;20289;-84
2021/12/10 06:24:25;;;;;;;10.98;7.00;;;;;;;-144.19;85.50;76406.00;4995094;28;20313;-85
2021/12/10 06:26:52;;;;;;;9.33;6.60;;;;;;;-144.19;85.58;76413.88;4977304;28;20054;-85
2021/12/10 06:29:23;;;;;;;10.05;6.68;;;;;;;-144.19;85.39;76413.88;4994717;28;20451;-84
2021/12/10 06:31:51;;;;;;;10.63;6.65;;;;;;;-144.19;85.52;76417.81;4976486;28;20137;-85
2021/12/10 06:34:18;;;;;;;9.75;6.90;;;;;;;-144.19;85.71;76421.75;4977272;28;20050;-84
2021/12/10 06:36:44;;;;;;;9.88;6.47;;;;;;;-144.19;85.05;76429.63;4977163;28;20523;-86
2021/12/10 06:39:11;;;;;;;9.07;6.28;;;;;;;-144.19;85.34;76425.69;4994236;28;20061;-84
2021/12/10 06:41:37;;;;;;;10.38;6.47;;;;;;;-144.19;84.94;76429.63;4992601;28;20572;-83
2021/12/10 06:44:04;;;;;;;12.80;6.13;;;;;;;-144.19;84.88;76421.75;4994563;28;20047;-84
2021/12/10 06:46:34;;;;;;;9.27;5.88;;;;;;;-144.19;84.86;76425.69;4993452;28;20053;-84
2021/12/10 06:49:02;;;;;;;10.02;6.75;;;;;;;-144.19;85.15;76423.72;4994651;28;20054;-84
2021/12/10 06:51:28;;;;;;;8.63;5.95;;;;;;;-144.19;84.66;76443.41;4994471;28;20060;-85
2021/12/10 06:53:54;;;;;;;8.40;5.83;;;;;;;-144.19;84.89;76433.56;4994358;28;20050;-84
2021/12/10 06:56:22;;;;;;;9.63;5.87;;;;;;;-144.19;84.96;76435.53;4993442;28;20300;-85
2021/12/10 06:58:51;;;;;;;11.05;5.88;;;;;;;-144.19;85.05;76437.50;4976855;28;20282;-85
2021/12/10 07:01:27;;;;;;;9.80;5.60;;;;;;;-144.19;84.75;76441.44;4994186;28;20058;-85
2021/12/10 07:03:56;;;;;;;10.48;6.72;;;;;;;-144.19;85.26;76449.31;4976785;28;20559;-84
2021/12/10 07:06:25;;;;;;;9.30;5.60;;;;;;;-144.19;85.38;76445.38;4976351;28;20527;-84
2021/12/10 07:08:52;;;;;;;8.57;5.72;;;;;;;-144.19;85.34;76449.31;4976135;28;20054;-84
2021/12/10 07:11:20;;;;;;;8.98;5.70;;;;;;;-144.19;85.68;76457.19;4976283;28;20052;-85
2021/12/10 07:13:50;;;;;;;9.35;5.43;;;;;;;-144.19;85.51;76457.19;4994231;28;20137;-84
2021/12/10 07:16:19;;;;;;;9.30;5.55;;;;;;;-144.19;85.80;76461.13;4976396;28;20531;-84
2021/12/10 07:18:46;;;;;;;9.32;5.93;;;;;;;-144.19;85.91;76461.13;4993761;28;20089;-84
2021/12/10 07:21:13;;;;;;;9.80;6.28;;;;;;;-144.19;85.64;76457.19;5003076;28;20031;-82
2021/12/10 07:23:42;;;;;;;9.15;5.97;;;;;;;-144.19;85.60;76453.25;5002537;28;20054;-85
2021/12/10 07:26:10;;;;;;;11.13;6.28;;;;;;;-144.19;85.55;76449.31;5000163;28;20615;-84
2021/12/10 07:28:37;;;;;;;14.85;7.70;;;;;;;-144.19;85.50;76455.22;5001018;28;20058;-83
2021/12/10 07:31:05;;;;;;;15.63;7.95;;;;;;;-144.19;85.41;76457.19;4999852;28;20579;-84
2021/12/10 07:33:32;;;;;;;13.23;7.05;;;;;;;-144.19;85.54;76453.25;4982979;28;20070;-85
2021/12/10 07:35:58;;;;;;;11.63;6.78;;;;;;;-144.19;85.37;76447.34;4999671;28;20053;-84
2021/12/10 07:38:25;;;;;;;11.00;6.55;;;;;;;-144.19;85.35;76449.31;4983311;28;20057;-83
2021/12/10 07:40:52;;;;;;;9.80;6.25;;;;;;;-144.19;85.32;76455.22;4982615;28;20060;-83
2021/12/10 07:43:19;;;;;;;9.38;6.20;;;;;;;-144.19;85.15;76451.28;4999547;28;20551;-84
2021/12/10 07:45:49;;;;;;;9.45;5.82;;;;;;;-144.19;85.23;76445.38;4982307;28;20047;-84
2021/12/10 07:48:19;;;;;;;11.43;6.72;;;;;;;-144.19;85.13;76449.31;4999947;28;20502;-83
2021/12/10 07:50:59;;;;;;;10.23;6.60;;;;;;;-144.19;85.03;76437.50;4981585;28;20054;-84
2021/12/10 07:53:29;;;;;;;9.45;5.25;;;;;;;-144.19;84.77;76433.56;4998988;28;20054;-84
2021/12/10 07:55:58;;;;;;;11.98;6.25;;;;;;;-144.19;84.75;76433.56;4998330;28;20059;-83
2021/12/10 07:58:25;;;;;;;8.63;5.68;;;;;;;-144.19;84.72;76425.69;4998771;28;20082;-84
2021/12/10 08:00:51;;;;;;;9.50;6.78;;;;;;;-144.19;84.60;76431.59;4981215;28;20062;-83
2021/12/10 08:03:18;;;;;;;12.27;6.10;;;;;;;-144.19;84.55;76427.66;4981103;28;20050;-84
2021/12/10 08:05:45;;;;;;;11.50;6.03;;;;;;;-144.19;84.62;76429.63;4998902;28;20050;-83
2021/12/10 08:08:12;;;;;;;;;;;;;;;-144.19;84.37;76429.63;4980457;28;20054;-83
2021/12/10 08:10:40;;;;;;;9.73;5.97;;;;;;;-144.19;84.35;76421.75;4997676;28;19922;-83
2021/12/10 08:13:07;;;;;;;8.65;5.95;;;;;;;-144.19;83.87;76421.75;4980581;28;20066;-84
2021/12/10 08:15:34;;;;;;;;;;;;;;;-144.19;83.87;76421.75;4981563;28;20046;-85
2021/12/10 08:18:01;;;;;;;9.55;5.93;;;;;;;-144.19;83.90;76421.75;4997060;28;19921;-83
2021/12/10 08:20:28;;;;;;;9.32;5.72;;;;;;;-144.19;83.71;76413.88;4997600;28;20100;-84
2021/12/10 08:22:55;;;;;;;11.05;5.55;;;;;;;-144.19;83.77;76413.88;4979388;28;20054;-82
2021/12/10 08:25:25;;;;;;;10.82;5.88;;;;;;;-144.19;83.72;76411.91;4979493;28;20555;-84
2021/12/10 08:27:52;;;;;;;7.57;5.00;;;;;;;-144.19;83.43;76409.94;4976732;28;20081;-84
2021/12/10 08:30:20;;;;;;;;;;;;;;;-144.19;83.46;76407.97;4979059;28;20042;-83
2021/12/10 08:32:46;;;;;;;8.55;5.55;;;;;;;-144.19;83.42;76402.06;4994974;28;20101;-82
2021/12/10 08:35:19;;;;;;;9.10;5.50;;;;;;;-144.19;83.37;76402.06;4996226;28;20057;-84
2021/12/10 08:37:46;;;;;;;10.05;5.75;;;;;;;-144.19;82.92;76404.03;4996034;28;20050;-83
2021/12/10 08:40:18;;;;;;;9.52;5.72;;;;;;;-144.19;83.11;76402.06;4996127;28;20060;-84
2021/12/10 08:42:44;;;;;;;13.63;5.45;;;;;;;-144.19;82.93;76398.13;4996515;28;20050;-83
2021/12/10 08:45:11;;;;;;;9.23;6.00;;;;;;;-144.19;82.67;76390.25;4996732;28;20062;-83
2021/12/10 08:47:38;;;;;;;9.10;5.15;;;;;;;-144.19;82.54;76388.28;4996019;28;20057;-84
2021/12/10 08:50:06;;;;;;;8.02;5.28;;;;;;;-144.19;82.00;76382.38;4996612;28;20495;-83
2021/12/10 08:52:33;;;;;;;8.77;5.53;;;;;;;-144.19;81.90;76374.50;4996263;28;20420;-82
2021/12/10 08:54:59;;;;;;;8.70;6.03;;;;;;;-144.19;81.61;76366.63;4993628;28;20062;-81
2021/12/10 08:57:26;;;;;;;9.90;5.35;;;;;;;-144.19;81.63;76362.69;5000445;28;20062;-84
2021/12/10 08:59:53;;;;;;;8.90;5.28;;;;;;;-144.19;81.16;76362.69;5001050;28;20668;-84
2021/12/10 09:02:20;;;;;;;10.52;5.70;;;;;;;-144.19;81.11;76354.81;4982404;28;20417;-83
2021/12/10 09:04:47;;;;;;;10.50;5.68;;;;;;;-144.19;80.95;76348.91;4981496;28;20042;-85
2021/12/10 09:07:16;;;;;;;10.00;4.90;;;;;;;-144.19;80.91;76354.81;4999630;28;20046;-84
2021/12/10 09:09:45;;;;;;;10.13;5.55;;;;;;;-144.19;80.92;76346.94;4981310;28;20054;-84
2021/12/10 09:12:20;;;;;;;12.50;5.70;;;;;;;-144.19;80.09;76331.22;4997660;28;20466;-83
2021/12/10 09:14:50;;;;;;;12.07;5.53;;;;;;;-144.19;79.82;76331.22;4998390;28;20405;-85
2021/12/10 09:17:23;;;;;;;10.02;5.70;;;;;;;-144.19;79.67;76321.38;4980305;28;20065;-83
2021/12/10 09:19:57;;;;;;;8.05;5.15;;;;;;;-144.19;79.58;76323.34;4993876;28;20129;-84
2021/12/10 09:22:25;;;;;;;8.10;5.35;;;;;;;-144.19;78.87;76317.44;4980643;28;20050;-83
2021/12/10 09:24:54;;;;;;;12.40;5.20;;;;;;;-144.19;78.75;76309.56;4977420;28;20050;-85
2021/12/10 09:27:22;;;;;;;9.05;4.80;;;;;;;-144.19;79.04;76305.63;4996972;28;20073;-82
2021/12/10 09:29:52;;;;;;;8.52;5.15;;;;;;;-144.19;78.35;76307.59;4980582;28;20050;-82
2021/12/10 09:32:24;;;;;;;14.65;5.93;;;;;;;-144.19;78.43;76303.66;4980095;28;20054;-83
2021/12/10 09:34:51;;;;;;;9.90;5.88;;;;;;;-144.19;77.90;76305.63;4997230;28;20050;-83
2021/12/10 09:37:19;;;;;;;8.45;5.45;;;;;;;-144.19;77.85;76299.72;4979347;28;20055;-85
2021/12/10 09:39:48;;;;;;;10.15;5.32;;;;;;;-144.19;77.57;76295.78;4979308;28;20050;-82
2021/12/10 09:42:17;;;;;;;8.70;4.95;;;;;;;-144.19;77.41;76295.78;4996943;28;20141;-84
2021/12/10 09:44:44;;;;;;;11.95;6.03;;;;;;;-144.19;77.22;76295.78;4996926;28;20038;-83
2021/12/10 09:47:14;;;;;;;8.10;5.03;;;;;;;-144.19;76.71;76276.09;4978536;28;20046;-85
2021/12/10 09:49:44;;;;;;;8.13;4.82;;;;;;;-144.19;76.80;76276.09;4978252;28;20065;-84
2021/12/10 09:52:11;;;;;;;8.48;5.55;;;;;;;-144.19;76.52;76274.13;4978213;28;20054;-84
2021/12/10 09:54:38;;;;;;;11.77;5.55;;;;;;;-144.19;76.25;76272.16;4977683;28;20582;-84
2021/12/10 09:57:18;;;;;;;8.82;5.15;;;;;;;-144.19;76.15;76272.16;4977199;28;20691;-83
2021/12/10 09:59:46;;;;;;;10.48;4.80;;;;;;;-144.19;76.12;76260.34;4994685;28;20497;-84
2021/12/10 10:02:14;;;;;;;13.27;5.22;;;;;;;-144.19;75.85;76258.38;4993293;28;20539;-83
2021/12/10 10:04:46;;;;;;;10.60;4.80;;;;;;;-144.19;75.46;76236.72;4977261;28;20050;-84
2021/12/10 10:07:15;;;;;;;10.15;5.32;;;;;;;-144.19;75.43;76232.78;4994304;28;20509;-83
2021/12/10 10:09:46;;;;;;;9.88;5.82;;;;;;;-144.19;75.13;76215.09;4994707;28;20061;-83
2021/12/10 10:12:19;;;;;;;9.45;4.97;;;;;;;-144.19;73.72;76183.59;4977074;28;20054;-84
2021/12/10 10:14:46;;;;;;;7.72;5.10;;;;;;;-144.19;73.09;76146.19;4994235;28;20536;-83
2021/12/10 10:17:13;;;;;;;7.90;4.60;;;;;;;-144.19;71.57;76102.91;4976063;28;20058;-83
2021/12/10 10:19:41;;;;;;;11.95;5.10;;;;;;;-144.19;71.24;75986.78;4993908;28;20057;-84
2021/12/10 10:22:14;;;;;;;8.20;4.72;;;;;;;-144.19;67.56;75992.69;4976427;28;20061;-83
2021/12/10 10:24:41;;;;;;;8.23;4.03;;;;;;;-144.19;66.68;75898.22;4994197;28;20468;-83
2021/12/10 10:27:14;;;;;;;;;;;;;;;-144.19;63.94;75744.69;4982453;28;20061;-84
2021/12/10 10:29:45;;;;;;;6.53;4.15;;;;;;;-144.19;63.09;75732.88;4983752;28;20328;-85
2021/12/10 10:32:17;;;;;;;8.85;4.70;;;;;;;-144.19;60.75;75707.31;4980333;28;20054;-85
2021/12/10 10:34:49;;;;;;;9.57;4.40;;;;;;;-144.19;59.45;75789.97;4979759;28;20054;-84
2021/12/10 10:37:17;;;;;;;9.30;4.55;;;;;;;-144.19;59.95;75717.16;4996533;28;20057;-86
2021/12/10 10:39:45;;;;;;;7.10;4.32;;;;;;;-144.19;59.07;75599.06;4979996;28;20616;-85
2021/12/10 10:42:14;;;;;;;;;;;;;;;-144.19;56.34;75555.78;4979510;28;20047;-83
2021/12/10 10:44:55;;;;;;;6.60;4.28;;;;;;;-144.19;56.41;75583.31;4980911;28;19975;-83
2021/12/10 10:47:23;;;;;;;9.50;4.68;;;;;;;-144.19;55.01;75581.34;4979135;28;20053;-84
2021/12/10 10:49:54;;;;;;;7.50;3.97;;;;;;;-144.19;54.86;75524.28;4996714;28;20057;-83
2021/12/10 10:52:30;;;;;;;8.20;4.30;;;;;;;-144.19;55.38;75465.25;4978475;28;20046;-83
2021/12/10 10:55:16;;;;;;;7.68;3.92;;;;;;;-144.19;52.57;75420.00;4978382;28;20055;-85
2021/12/10 10:58:03;;;;;;;11.07;4.15;;;;;;;-144.19;51.98;75374.72;4997448;28;20057;-83
2021/12/10 11:00:49;;;;;;;9.88;4.22;;;;;;;-144.19;51.80;75410.16;4982164;28;20055;-85
2021/12/10 11:03:42;;;;;;;7.05;3.25;;;;;;;-144.19;51.57;75374.72;4999328;28;20050;-84
2021/12/10 11:06:17;;;;;;;6.13;3.72;;;;;;;-144.19;49.67;75329.47;4981685;28;20081;-83
2021/12/10 11:08:49;;;;;;;8.63;4.18;;;;;;;-144.19;50.11;75351.13;4981076;28;20061;-84
2021/12/10 11:11:21;;;;;;;8.32;3.42;;;;;;;-144.19;49.63;75315.69;4981630;28;20050;-82
2021/12/10 11:13:51;;;;;;;6.80;4.40;;;;;;;-144.19;49.71;75244.84;4998370;28;20057;-83
2021/12/10 11:16:20;;;;;;;7.50;4.03;;;;;;;-144.19;46.49;75225.19;4999030;28;20050;-84
2021/12/10 11:18:54;;;;;;;9.07;4.38;;;;;;;-144.19;48.39;75201.56;4980235;28;20058;-86
2021/12/10 11:21:42;;;;;;;8.57;3.70;;;;;;;-144.19;48.63;75254.69;4995623;28;20061;-85
2021/12/10 11:24:19;;;;;;;6.05;3.28;;;;;;;-144.19;46.00;75288.16;4996310;28;20054;-86
2021/12/10 11:26:53;;;;;;;8.35;3.60;;;;;;;-144.19;47.83;75276.34;4994809;28;20046;-85
2021/12/10 11:30:06;;;;;;;6.47;2.85;;;;;;;-144.19;48.66;75331.44;4979170;28;20056;-85
2021/12/10 11:33:03;;;;;;;5.97;3.38;;;;;;;-144.19;46.50;75260.59;4957953;28;20054;-86